If you wish to contribute or participate in the discussions about articles you are invited to join SKYbrary as a registered user

 Actions

Daniel Oduber Quirós International Airport

From SKYbrary Wiki

MRLB
Airport
ICAO: MRLB – IATA: LIR
Summary
Name Daniel Oduber Quirós International Airport
Region South America and Caribbean
Territory Costa Rica CR.gif
Location Liberia, Guanacaste Province
Serving Liberia
Elevation 81.991 m
269 ft81.991 m
Coordinates 10° 35' 39.72" N, 85° 32' 38.94" W
Runways
Designator Length Width Surface ROPS
7/25 2750 m9,022.31 ft
45 m147.638 ft
ASP yes/yes


METAR
Observation MRLB 190400Z 10005KT CAVOK 27/23 A2985 NOSIG
Station Liberia
Date/Time 19 September 2019 04:00:00
Wind direction 100°
Wind speed 05 kts
Lowest cloud amount clouds and visibility OK
Temperature 27°C
Dew point 23°C
Humidity 78%
QNH hPa
Weather condition n/a

Daniel Oduber Quirós International Airport, also known as Liberia International Airport, is one of four international airports in Costa Rica. The airport is located in the city of Liberia in Guanacaste Province.

Climatology

Tropical savannah climate (Köppen climate classification Aw)

Maps

Terrain

Loading map...

Airport Layout

Loading map...


Accidents & Serious Incidents at or in vicinity of MRLB

None on SKYbrary